sensor_id;sensor_type;location;lat;lon;timestamp;P1;durP1;ratioP1;P2;durP2;ratioP2
54555;SDS011;57291;37.520;15.106;2023-04-23T00:01:26;8.75;;;4.53;;
54555;SDS011;57291;37.520;15.106;2023-04-23T00:03:56;7.07;;;4.15;;
54555;SDS011;57291;37.520;15.106;2023-04-23T00:06:24;7.55;;;4.53;;
54555;SDS011;57291;37.520;15.106;2023-04-23T00:08:53;7.90;;;4.13;;
54555;SDS011;57291;37.520;15.106;2023-04-23T00:11:21;8.32;;;3.90;;
54555;SDS011;57291;37.520;15.106;2023-04-23T00:13:48;7.13;;;4.30;;
54555;SDS011;57291;37.520;15.106;2023-04-23T00:16:17;9.48;;;4.63;;
54555;SDS011;57291;37.520;15.106;2023-04-23T00:18:45;7.03;;;4.18;;
54555;SDS011;57291;37.520;15.106;2023-04-23T00:21:13;10.18;;;4.50;;
54555;SDS011;57291;37.520;15.106;2023-04-23T00:23:40;12.93;;;4.53;;
54555;SDS011;57291;37.520;15.106;2023-04-23T00:26:07;11.30;;;4.43;;
54555;SDS011;57291;37.520;15.106;2023-04-23T00:28:36;9.95;;;4.35;;
54555;SDS011;57291;37.520;15.106;2023-04-23T00:31:03;8.10;;;4.47;;
54555;SDS011;57291;37.520;15.106;2023-04-23T00:33:30;7.75;;;4.28;;
54555;SDS011;57291;37.520;15.106;2023-04-23T00:35:57;6.47;;;3.70;;
54555;SDS011;57291;37.520;15.106;2023-04-23T00:38:24;8.18;;;3.80;;
54555;SDS011;57291;37.520;15.106;2023-04-23T00:40:52;5.63;;;3.72;;
54555;SDS011;57291;37.520;15.106;2023-04-23T00:43:19;7.15;;;3.67;;
54555;SDS011;57291;37.520;15.106;2023-04-23T00:45:47;7.40;;;3.35;;
54555;SDS011;57291;37.520;15.106;2023-04-23T00:48:15;7.68;;;3.83;;
54555;SDS011;57291;37.520;15.106;2023-04-23T00:50:42;6.43;;;3.45;;
54555;SDS011;57291;37.520;15.106;2023-04-23T00:53:09;5.85;;;3.47;;
54555;SDS011;57291;37.520;15.106;2023-04-23T00:55:36;6.57;;;3.60;;
54555;SDS011;57291;37.520;15.106;2023-04-23T00:58:04;7.65;;;3.90;;
54555;SDS011;57291;37.520;15.106;2023-04-23T01:00:33;5.47;;;3.40;;
54555;SDS011;57291;37.520;15.106;2023-04-23T01:03:06;6.32;;;3.78;;
54555;SDS011;57291;37.520;15.106;2023-04-23T01:05:34;6.85;;;3.35;;
54555;SDS011;57291;37.520;15.106;2023-04-23T01:08:01;4.85;;;3.53;;
54555;SDS011;57291;37.520;15.106;2023-04-23T01:10:29;4.78;;;2.85;;
54555;SDS011;57291;37.520;15.106;2023-04-23T01:12:58;6.03;;;2.75;;
54555;SDS011;57291;37.520;15.106;2023-04-23T01:15:26;4.63;;;2.72;;
54555;SDS011;57291;37.520;15.106;2023-04-23T01:17:53;4.45;;;2.90;;
54555;SDS011;57291;37.520;15.106;2023-04-23T01:20:20;5.53;;;3.10;;
54555;SDS011;57291;37.520;15.106;2023-04-23T01:22:48;4.57;;;2.95;;
54555;SDS011;57291;37.520;15.106;2023-04-23T01:25:16;6.82;;;3.33;;
54555;SDS011;57291;37.520;15.106;2023-04-23T01:27:43;4.72;;;2.72;;
54555;SDS011;57291;37.520;15.106;2023-04-23T01:30:11;7.72;;;2.78;;
54555;SDS011;57291;37.520;15.106;2023-04-23T01:32:39;5.40;;;2.80;;
54555;SDS011;57291;37.520;15.106;2023-04-23T01:35:08;4.80;;;2.45;;
54555;SDS011;57291;37.520;15.106;2023-04-23T01:37:35;4.90;;;2.70;;
54555;SDS011;57291;37.520;15.106;2023-04-23T01:40:05;4.88;;;2.50;;
54555;SDS011;57291;37.520;15.106;2023-04-23T01:42:34;5.40;;;2.65;;
54555;SDS011;57291;37.520;15.106;2023-04-23T01:45:01;5.43;;;2.30;;
54555;SDS011;57291;37.520;15.106;2023-04-23T01:47:29;5.55;;;2.80;;
54555;SDS011;57291;37.520;15.106;2023-04-23T01:49:57;6.38;;;2.70;;
54555;SDS011;57291;37.520;15.106;2023-04-23T01:52:24;5.70;;;2.58;;
54555;SDS011;57291;37.520;15.106;2023-04-23T01:54:51;7.15;;;2.90;;
54555;SDS011;57291;37.520;15.106;2023-04-23T01:57:18;6.35;;;2.58;;
54555;SDS011;57291;37.520;15.106;2023-04-23T02:02:46;5.07;;;2.85;;
54555;SDS011;57291;37.520;15.106;2023-04-23T02:05:16;5.72;;;3.10;;
54555;SDS011;57291;37.520;15.106;2023-04-23T02:07:45;5.38;;;2.90;;
54555;SDS011;57291;37.520;15.106;2023-04-23T02:10:15;6.65;;;3.15;;
54555;SDS011;57291;37.520;15.106;2023-04-23T02:12:45;6.75;;;2.72;;
54555;SDS011;57291;37.520;15.106;2023-04-23T02:15:13;5.47;;;2.85;;
54555;SDS011;57291;37.520;15.106;2023-04-23T02:17:42;5.43;;;3.10;;
54555;SDS011;57291;37.520;15.106;2023-04-23T02:20:09;5.70;;;3.30;;
54555;SDS011;57291;37.520;15.106;2023-04-23T02:22:38;5.55;;;3.35;;
54555;SDS011;57291;37.520;15.106;2023-04-23T02:25:06;6.70;;;3.42;;
54555;SDS011;57291;37.520;15.106;2023-04-23T02:27:34;6.72;;;3.35;;
54555;SDS011;57291;37.520;15.106;2023-04-23T02:30:02;7.57;;;4.15;;
54555;SDS011;57291;37.520;15.106;2023-04-23T02:32:29;9.23;;;4.32;;
54555;SDS011;57291;37.520;15.106;2023-04-23T02:34:57;7.43;;;3.67;;
54555;SDS011;57291;37.520;15.106;2023-04-23T02:37:25;20.17;;;5.50;;
54555;SDS011;57291;37.520;15.106;2023-04-23T02:39:52;17.75;;;6.25;;
54555;SDS011;57291;37.520;15.106;2023-04-23T02:42:20;20.73;;;6.70;;
54555;SDS011;57291;37.520;15.106;2023-04-23T02:44:47;18.83;;;6.47;;
54555;SDS011;57291;37.520;15.106;2023-04-23T02:47:14;25.15;;;7.30;;
54555;SDS011;57291;37.520;15.106;2023-04-23T02:49:41;18.88;;;7.03;;
54555;SDS011;57291;37.520;15.106;2023-04-23T02:52:08;11.00;;;4.45;;
54555;SDS011;57291;37.520;15.106;2023-04-23T02:54:36;14.20;;;5.00;;
54555;SDS011;57291;37.520;15.106;2023-04-23T02:57:04;25.88;;;7.47;;
54555;SDS011;57291;37.520;15.106;2023-04-23T02:59:32;21.77;;;7.70;;
54555;SDS011;57291;37.520;15.106;2023-04-23T03:01:59;30.20;;;9.07;;
54555;SDS011;57291;37.520;15.106;2023-04-23T03:04:27;29.17;;;8.82;;
54555;SDS011;57291;37.520;15.106;2023-04-23T03:06:54;34.30;;;9.90;;
54555;SDS011;57291;37.520;15.106;2023-04-23T03:09:22;22.63;;;9.13;;
54555;SDS011;57291;37.520;15.106;2023-04-23T03:11:49;23.40;;;8.00;;
54555;SDS011;57291;37.520;15.106;2023-04-23T03:14:16;20.95;;;7.13;;
54555;SDS011;57291;37.520;15.106;2023-04-23T03:16:44;20.50;;;6.97;;
54555;SDS011;57291;37.520;15.106;2023-04-23T03:19:11;23.17;;;7.07;;
54555;SDS011;57291;37.520;15.106;2023-04-23T03:21:39;23.23;;;7.45;;
54555;SDS011;57291;37.520;15.106;2023-04-23T03:24:07;40.10;;;10.82;;
54555;SDS011;57291;37.520;15.106;2023-04-23T03:26:34;44.33;;;12.00;;
54555;SDS011;57291;37.520;15.106;2023-04-23T03:29:02;45.17;;;11.73;;
54555;SDS011;57291;37.520;15.106;2023-04-23T03:31:29;54.30;;;12.27;;
54555;SDS011;57291;37.520;15.106;2023-04-23T03:33:56;35.08;;;11.55;;
54555;SDS011;57291;37.520;15.106;2023-04-23T03:36:30;55.88;;;11.63;;
54555;SDS011;57291;37.520;15.106;2023-04-23T03:38:59;34.83;;;11.52;;
54555;SDS011;57291;37.520;15.106;2023-04-23T03:41:37;33.65;;;9.88;;
54555;SDS011;57291;37.520;15.106;2023-04-23T03:44:06;40.30;;;10.68;;
54555;SDS011;57291;37.520;15.106;2023-04-23T03:46:39;29.05;;;8.70;;
54555;SDS011;57291;37.520;15.106;2023-04-23T03:49:07;17.42;;;7.05;;
54555;SDS011;57291;37.520;15.106;2023-04-23T03:51:34;11.70;;;5.90;;
54555;SDS011;57291;37.520;15.106;2023-04-23T03:54:01;15.93;;;6.70;;
54555;SDS011;57291;37.520;15.106;2023-04-23T03:56:33;15.10;;;6.65;;
54555;SDS011;57291;37.520;15.106;2023-04-23T03:59:30;15.77;;;7.22;;
54555;SDS011;57291;37.520;15.106;2023-04-23T04:01:58;15.57;;;7.13;;
54555;SDS011;57291;37.520;15.106;2023-04-23T04:04:25;18.15;;;7.28;;
54555;SDS011;57291;37.520;15.106;2023-04-23T04:06:54;17.15;;;6.97;;
54555;SDS011;57291;37.520;15.106;2023-04-23T04:09:25;19.67;;;7.32;;
54555;SDS011;57291;37.520;15.106;2023-04-23T04:11:53;28.52;;;9.48;;
54555;SDS011;57291;37.520;15.106;2023-04-23T04:14:21;39.92;;;10.85;;
54555;SDS011;57291;37.520;15.106;2023-04-23T04:16:48;31.92;;;10.13;;
54555;SDS011;57291;37.520;15.106;2023-04-23T04:19:16;38.55;;;11.13;;
54555;SDS011;57291;37.520;15.106;2023-04-23T04:21:43;35.28;;;11.20;;
54555;SDS011;57291;37.520;15.106;2023-04-23T04:24:11;33.15;;;10.68;;
54555;SDS011;57291;37.520;15.106;2023-04-23T04:26:38;25.75;;;9.77;;
54555;SDS011;57291;37.520;15.106;2023-04-23T04:29:09;33.53;;;11.07;;
54555;SDS011;57291;37.520;15.106;2023-04-23T04:31:37;26.45;;;9.65;;
54555;SDS011;57291;37.520;15.106;2023-04-23T04:34:04;20.85;;;8.85;;
54555;SDS011;57291;37.520;15.106;2023-04-23T04:36:34;20.63;;;8.05;;
54555;SDS011;57291;37.520;15.106;2023-04-23T04:39:02;21.83;;;7.20;;
54555;SDS011;57291;37.520;15.106;2023-04-23T04:41:29;19.38;;;7.45;;
54555;SDS011;57291;37.520;15.106;2023-04-23T04:43:56;19.90;;;7.97;;
54555;SDS011;57291;37.520;15.106;2023-04-23T04:46:24;18.23;;;6.55;;
54555;SDS011;57291;37.520;15.106;2023-04-23T04:48:54;19.15;;;6.82;;
54555;SDS011;57291;37.520;15.106;2023-04-23T04:51:22;22.52;;;10.73;;
54555;SDS011;57291;37.520;15.106;2023-04-23T04:53:49;20.58;;;7.47;;
54555;SDS011;57291;37.520;15.106;2023-04-23T04:56:16;42.70;;;12.25;;
54555;SDS011;57291;37.520;15.106;2023-04-23T04:58:43;45.72;;;13.60;;
54555;SDS011;57291;37.520;15.106;2023-04-23T05:01:11;52.03;;;13.63;;
54555;SDS011;57291;37.520;15.106;2023-04-23T05:03:39;40.95;;;12.95;;
54555;SDS011;57291;37.520;15.106;2023-04-23T05:06:06;35.35;;;12.20;;
54555;SDS011;57291;37.520;15.106;2023-04-23T05:08:33;35.20;;;11.45;;
54555;SDS011;57291;37.520;15.106;2023-04-23T05:11:01;33.58;;;11.40;;
54555;SDS011;57291;37.520;15.106;2023-04-23T05:13:29;40.88;;;12.38;;
54555;SDS011;57291;37.520;15.106;2023-04-23T05:15:56;34.45;;;11.93;;
54555;SDS011;57291;37.520;15.106;2023-04-23T05:18:23;40.90;;;11.63;;
54555;SDS011;57291;37.520;15.106;2023-04-23T05:20:52;38.63;;;12.32;;
54555;SDS011;57291;37.520;15.106;2023-04-23T05:23:19;42.55;;;12.40;;
54555;SDS011;57291;37.520;15.106;2023-04-23T05:25:46;35.45;;;11.48;;
54555;SDS011;57291;37.520;15.106;2023-04-23T05:28:13;42.65;;;11.63;;
54555;SDS011;57291;37.520;15.106;2023-04-23T05:30:41;32.83;;;11.10;;
54555;SDS011;57291;37.520;15.106;2023-04-23T05:33:08;23.67;;;9.73;;
54555;SDS011;57291;37.520;15.106;2023-04-23T05:35:35;25.88;;;9.73;;
54555;SDS011;57291;37.520;15.106;2023-04-23T05:38:02;22.17;;;8.57;;
54555;SDS011;57291;37.520;15.106;2023-04-23T05:40:31;32.78;;;9.85;;
54555;SDS011;57291;37.520;15.106;2023-04-23T05:42:59;33.90;;;10.10;;
54555;SDS011;57291;37.520;15.106;2023-04-23T05:45:27;23.58;;;9.10;;
54555;SDS011;57291;37.520;15.106;2023-04-23T05:47:54;29.60;;;9.55;;
54555;SDS011;57291;37.520;15.106;2023-04-23T05:50:21;35.88;;;10.15;;
54555;SDS011;57291;37.520;15.106;2023-04-23T05:52:49;27.98;;;9.20;;
54555;SDS011;57291;37.520;15.106;2023-04-23T05:55:16;25.23;;;8.68;;
54555;SDS011;57291;37.520;15.106;2023-04-23T05:57:46;20.70;;;7.65;;
54555;SDS011;57291;37.520;15.106;2023-04-23T06:00:13;22.15;;;8.32;;
54555;SDS011;57291;37.520;15.106;2023-04-23T06:02:40;23.83;;;8.48;;
54555;SDS011;57291;37.520;15.106;2023-04-23T06:05:08;20.58;;;8.25;;
54555;SDS011;57291;37.520;15.106;2023-04-23T06:07:36;18.30;;;7.22;;
54555;SDS011;57291;37.520;15.106;2023-04-23T06:10:04;16.08;;;6.72;;
54555;SDS011;57291;37.520;15.106;2023-04-23T06:12:31;18.35;;;7.35;;
54555;SDS011;57291;37.520;15.106;2023-04-23T06:14:58;16.02;;;6.50;;
54555;SDS011;57291;37.520;15.106;2023-04-23T06:17:26;11.27;;;5.25;;
54555;SDS011;57291;37.520;15.106;2023-04-23T06:19:53;18.20;;;7.95;;
54555;SDS011;57291;37.520;15.106;2023-04-23T06:22:20;17.50;;;7.45;;
54555;SDS011;57291;37.520;15.106;2023-04-23T06:24:47;12.57;;;6.18;;
54555;SDS011;57291;37.520;15.106;2023-04-23T06:27:14;14.63;;;5.88;;
54555;SDS011;57291;37.520;15.106;2023-04-23T06:29:46;10.50;;;5.13;;
54555;SDS011;57291;37.520;15.106;2023-04-23T06:32:13;9.77;;;4.68;;
54555;SDS011;57291;37.520;15.106;2023-04-23T06:34:40;11.32;;;4.68;;
54555;SDS011;57291;37.520;15.106;2023-04-23T06:37:25;16.70;;;5.80;;
54555;SDS011;57291;37.520;15.106;2023-04-23T06:39:55;17.08;;;5.40;;
54555;SDS011;57291;37.520;15.106;2023-04-23T06:42:22;8.77;;;4.97;;
54555;SDS011;57291;37.520;15.106;2023-04-23T06:45:16;10.15;;;3.90;;
54555;SDS011;57291;37.520;15.106;2023-04-23T06:47:43;10.57;;;3.47;;
54555;SDS011;57291;37.520;15.106;2023-04-23T06:50:10;8.73;;;4.25;;
54555;SDS011;57291;37.520;15.106;2023-04-23T06:52:38;9.35;;;3.60;;
54555;SDS011;57291;37.520;15.106;2023-04-23T06:55:05;12.25;;;3.90;;
54555;SDS011;57291;37.520;15.106;2023-04-23T06:57:33;8.05;;;3.50;;
54555;SDS011;57291;37.520;15.106;2023-04-23T07:00:01;12.25;;;4.00;;
54555;SDS011;57291;37.520;15.106;2023-04-23T07:02:34;8.75;;;3.85;;
54555;SDS011;57291;37.520;15.106;2023-04-23T07:05:02;9.75;;;3.90;;
54555;SDS011;57291;37.520;15.106;2023-04-23T07:07:30;13.05;;;3.67;;
54555;SDS011;57291;37.520;15.106;2023-04-23T07:09:58;8.57;;;3.63;;
54555;SDS011;57291;37.520;15.106;2023-04-23T07:12:25;12.60;;;4.32;;
54555;SDS011;57291;37.520;15.106;2023-04-23T07:14:52;13.52;;;5.13;;
54555;SDS011;57291;37.520;15.106;2023-04-23T07:17:20;9.93;;;4.00;;
54555;SDS011;57291;37.520;15.106;2023-04-23T07:19:47;16.63;;;4.57;;
54555;SDS011;57291;37.520;15.106;2023-04-23T07:22:14;13.73;;;4.10;;
54555;SDS011;57291;37.520;15.106;2023-04-23T07:24:41;14.57;;;4.63;;
54555;SDS011;57291;37.520;15.106;2023-04-23T07:27:09;9.57;;;3.90;;
54555;SDS011;57291;37.520;15.106;2023-04-23T07:29:36;17.27;;;4.20;;
54555;SDS011;57291;37.520;15.106;2023-04-23T07:32:03;9.57;;;3.38;;
54555;SDS011;57291;37.520;15.106;2023-04-23T07:34:30;10.98;;;3.65;;
54555;SDS011;57291;37.520;15.106;2023-04-23T07:36:58;8.38;;;3.90;;
54555;SDS011;57291;37.520;15.106;2023-04-23T07:39:25;8.77;;;3.30;;
54555;SDS011;57291;37.520;15.106;2023-04-23T07:41:52;10.18;;;3.42;;
54555;SDS011;57291;37.520;15.106;2023-04-23T07:44:19;12.18;;;4.65;;
54555;SDS011;57291;37.520;15.106;2023-04-23T07:46:47;11.23;;;3.28;;
54555;SDS011;57291;37.520;15.106;2023-04-23T07:49:14;8.00;;;3.33;;
54555;SDS011;57291;37.520;15.106;2023-04-23T07:51:41;8.25;;;3.80;;
54555;SDS011;57291;37.520;15.106;2023-04-23T07:54:09;11.52;;;3.42;;
54555;SDS011;57291;37.520;15.106;2023-04-23T07:56:37;11.55;;;3.25;;
54555;SDS011;57291;37.520;15.106;2023-04-23T07:59:04;7.47;;;3.20;;
54555;SDS011;57291;37.520;15.106;2023-04-23T08:01:31;7.53;;;3.05;;
54555;SDS011;57291;37.520;15.106;2023-04-23T08:03:59;6.38;;;3.08;;
54555;SDS011;57291;37.520;15.106;2023-04-23T08:06:27;9.32;;;3.08;;
54555;SDS011;57291;37.520;15.106;2023-04-23T08:09:00;11.75;;;3.53;;
54555;SDS011;57291;37.520;15.106;2023-04-23T08:11:32;8.27;;;2.72;;
54555;SDS011;57291;37.520;15.106;2023-04-23T08:13:59;7.10;;;2.80;;
54555;SDS011;57291;37.520;15.106;2023-04-23T08:16:27;9.82;;;2.90;;
54555;SDS011;57291;37.520;15.106;2023-04-23T08:18:56;7.65;;;3.45;;
54555;SDS011;57291;37.520;15.106;2023-04-23T08:21:32;12.45;;;3.30;;
54555;SDS011;57291;37.520;15.106;2023-04-23T08:23:59;8.15;;;3.33;;
54555;SDS011;57291;37.520;15.106;2023-04-23T08:26:29;10.52;;;3.15;;
54555;SDS011;57291;37.520;15.106;2023-04-23T08:28:56;6.53;;;2.42;;
54555;SDS011;57291;37.520;15.106;2023-04-23T08:31:26;8.38;;;3.17;;
54555;SDS011;57291;37.520;15.106;2023-04-23T08:33:53;9.27;;;3.20;;
54555;SDS011;57291;37.520;15.106;2023-04-23T08:36:21;7.78;;;3.08;;
54555;SDS011;57291;37.520;15.106;2023-04-23T08:38:49;7.70;;;3.20;;
54555;SDS011;57291;37.520;15.106;2023-04-23T08:41:17;9.18;;;3.33;;
54555;SDS011;57291;37.520;15.106;2023-04-23T08:43:53;6.18;;;2.97;;
54555;SDS011;57291;37.520;15.106;2023-04-23T08:46:44;6.18;;;3.10;;
54555;SDS011;57291;37.520;15.106;2023-04-23T08:49:13;8.40;;;3.22;;
54555;SDS011;57291;37.520;15.106;2023-04-23T08:51:45;7.57;;;2.90;;
54555;SDS011;57291;37.520;15.106;2023-04-23T08:54:15;7.72;;;3.13;;
54555;SDS011;57291;37.520;15.106;2023-04-23T08:56:48;5.82;;;2.42;;
54555;SDS011;57291;37.520;15.106;2023-04-23T08:59:17;7.60;;;2.63;;
54555;SDS011;57291;37.520;15.106;2023-04-23T09:01:46;6.80;;;2.80;;
54555;SDS011;57291;37.520;15.106;2023-04-23T09:04:14;6.80;;;2.85;;
54555;SDS011;57291;37.520;15.106;2023-04-23T09:06:42;9.68;;;3.63;;
54555;SDS011;57291;37.520;15.106;2023-04-23T09:09:10;8.35;;;3.10;;
54555;SDS011;57291;37.520;15.106;2023-04-23T09:11:41;5.63;;;3.00;;
54555;SDS011;57291;37.520;15.106;2023-04-23T09:14:08;7.03;;;2.45;;
54555;SDS011;57291;37.520;15.106;2023-04-23T09:16:36;7.55;;;2.53;;
54555;SDS011;57291;37.520;15.106;2023-04-23T09:19:07;7.25;;;2.72;;
54555;SDS011;57291;37.520;15.106;2023-04-23T09:21:37;7.85;;;3.30;;
54555;SDS011;57291;37.520;15.106;2023-04-23T09:24:08;6.55;;;3.15;;
54555;SDS011;57291;37.520;15.106;2023-04-23T09:26:45;7.25;;;2.92;;
54555;SDS011;57291;37.520;15.106;2023-04-23T09:29:20;4.85;;;2.47;;
54555;SDS011;57291;37.520;15.106;2023-04-23T09:31:57;10.75;;;3.40;;
54555;SDS011;57291;37.520;15.106;2023-04-23T09:34:33;5.75;;;2.78;;
54555;SDS011;57291;37.520;15.106;2023-04-23T09:37:05;8.52;;;3.28;;
54555;SDS011;57291;37.520;15.106;2023-04-23T09:39:36;10.10;;;2.92;;
54555;SDS011;57291;37.520;15.106;2023-04-23T09:42:05;9.35;;;3.03;;
54555;SDS011;57291;37.520;15.106;2023-04-23T09:44:35;11.70;;;3.28;;
54555;SDS011;57291;37.520;15.106;2023-04-23T09:47:06;8.15;;;3.17;;
54555;SDS011;57291;37.520;15.106;2023-04-23T09:49:47;6.28;;;3.10;;
54555;SDS011;57291;37.520;15.106;2023-04-23T09:52:15;5.80;;;2.65;;
54555;SDS011;57291;37.520;15.106;2023-04-23T09:54:43;5.60;;;2.78;;
54555;SDS011;57291;37.520;15.106;2023-04-23T09:57:12;8.25;;;2.85;;
54555;SDS011;57291;37.520;15.106;2023-04-23T09:59:39;9.45;;;2.47;;
54555;SDS011;57291;37.520;15.106;2023-04-23T10:02:18;8.55;;;2.80;;
54555;SDS011;57291;37.520;15.106;2023-04-23T10:04:49;7.75;;;3.35;;
54555;SDS011;57291;37.520;15.106;2023-04-23T10:07:32;9.35;;;3.05;;
54555;SDS011;57291;37.520;15.106;2023-04-23T10:09:59;8.60;;;2.67;;
54555;SDS011;57291;37.520;15.106;2023-04-23T10:12:27;7.18;;;3.05;;
54555;SDS011;57291;37.520;15.106;2023-04-23T10:15:14;5.60;;;2.63;;
54555;SDS011;57291;37.520;15.106;2023-04-23T10:17:41;5.80;;;3.08;;
54555;SDS011;57291;37.520;15.106;2023-04-23T10:20:09;7.72;;;3.65;;
54555;SDS011;57291;37.520;15.106;2023-04-23T10:22:38;8.68;;;3.65;;
54555;SDS011;57291;37.520;15.106;2023-04-23T10:25:10;7.05;;;3.35;;
54555;SDS011;57291;37.520;15.106;2023-04-23T10:27:39;10.02;;;3.10;;
54555;SDS011;57291;37.520;15.106;2023-04-23T10:30:21;7.50;;;3.20;;
54555;SDS011;57291;37.520;15.106;2023-04-23T10:32:49;10.65;;;3.50;;
54555;SDS011;57291;37.520;15.106;2023-04-23T10:35:16;9.10;;;3.28;;
54555;SDS011;57291;37.520;15.106;2023-04-23T10:37:44;9.05;;;3.60;;
54555;SDS011;57291;37.520;15.106;2023-04-23T10:40:15;9.65;;;3.53;;
54555;SDS011;57291;37.520;15.106;2023-04-23T10:42:52;9.40;;;4.45;;
54555;SDS011;57291;37.520;15.106;2023-04-23T10:45:19;8.90;;;3.10;;
54555;SDS011;57291;37.520;15.106;2023-04-23T10:47:54;6.72;;;3.30;;
54555;SDS011;57291;37.520;15.106;2023-04-23T10:50:23;9.75;;;4.38;;
54555;SDS011;57291;37.520;15.106;2023-04-23T10:52:55;12.55;;;3.88;;
54555;SDS011;57291;37.520;15.106;2023-04-23T10:55:28;8.05;;;3.67;;
54555;SDS011;57291;37.520;15.106;2023-04-23T10:57:58;6.30;;;3.42;;
54555;SDS011;57291;37.520;15.106;2023-04-23T11:00:41;10.00;;;4.18;;
54555;SDS011;57291;37.520;15.106;2023-04-23T11:06:14;10.20;;;4.03;;
54555;SDS011;57291;37.520;15.106;2023-04-23T11:08:52;8.55;;;4.03;;
54555;SDS011;57291;37.520;15.106;2023-04-23T11:11:26;8.27;;;3.47;;
54555;SDS011;57291;37.520;15.106;2023-04-23T11:14:14;11.85;;;4.22;;
54555;SDS011;57291;37.520;15.106;2023-04-23T11:16:41;7.60;;;3.95;;
54555;SDS011;57291;37.520;15.106;2023-04-23T11:19:09;7.85;;;4.43;;
54555;SDS011;57291;37.520;15.106;2023-04-23T11:22:04;8.75;;;3.50;;
54555;SDS011;57291;37.520;15.106;2023-04-23T11:27:06;6.65;;;3.78;;
54555;SDS011;57291;37.520;15.106;2023-04-23T11:29:36;8.98;;;4.18;;
54555;SDS011;57291;37.520;15.106;2023-04-23T11:32:05;10.60;;;4.10;;
54555;SDS011;57291;37.520;15.106;2023-04-23T11:34:37;7.55;;;3.83;;
54555;SDS011;57291;37.520;15.106;2023-04-23T11:37:15;13.57;;;4.05;;
54555;SDS011;57291;37.520;15.106;2023-04-23T11:39:44;10.32;;;3.85;;
54555;SDS011;57291;37.520;15.106;2023-04-23T11:42:13;8.48;;;3.90;;
54555;SDS011;57291;37.520;15.106;2023-04-23T11:44:41;11.55;;;3.92;;
54555;SDS011;57291;37.520;15.106;2023-04-23T11:47:10;10.52;;;3.80;;
54555;SDS011;57291;37.520;15.106;2023-04-23T11:49:39;8.18;;;4.22;;
54555;SDS011;57291;37.520;15.106;2023-04-23T11:52:09;7.70;;;3.75;;
54555;SDS011;57291;37.520;15.106;2023-04-23T11:54:39;11.35;;;4.63;;
54555;SDS011;57291;37.520;15.106;2023-04-23T11:57:07;8.13;;;4.00;;
54555;SDS011;57291;37.520;15.106;2023-04-23T11:59:36;21.40;;;7.03;;
54555;SDS011;57291;37.520;15.106;2023-04-23T12:02:03;6.55;;;3.97;;
54555;SDS011;57291;37.520;15.106;2023-04-23T12:04:31;14.27;;;5.03;;
54555;SDS011;57291;37.520;15.106;2023-04-23T12:06:59;11.98;;;5.13;;
54555;SDS011;57291;37.520;15.106;2023-04-23T12:09:27;10.75;;;5.43;;
54555;SDS011;57291;37.520;15.106;2023-04-23T12:11:55;7.97;;;4.00;;
54555;SDS011;57291;37.520;15.106;2023-04-23T12:14:25;13.20;;;5.30;;
54555;SDS011;57291;37.520;15.106;2023-04-23T12:16:56;12.73;;;6.22;;
54555;SDS011;57291;37.520;15.106;2023-04-23T12:19:26;8.30;;;4.28;;
54555;SDS011;57291;37.520;15.106;2023-04-23T12:21:56;14.15;;;7.05;;
54555;SDS011;57291;37.520;15.106;2023-04-23T12:24:24;10.30;;;5.40;;
54555;SDS011;57291;37.520;15.106;2023-04-23T12:26:57;21.67;;;9.70;;
54555;SDS011;57291;37.520;15.106;2023-04-23T12:29:29;12.85;;;6.18;;
54555;SDS011;57291;37.520;15.106;2023-04-23T12:31:58;9.27;;;4.90;;
54555;SDS011;57291;37.520;15.106;2023-04-23T12:34:25;7.30;;;3.00;;
54555;SDS011;57291;37.520;15.106;2023-04-23T12:36:54;9.15;;;4.22;;
54555;SDS011;57291;37.520;15.106;2023-04-23T12:39:32;4.78;;;2.80;;
54555;SDS011;57291;37.520;15.106;2023-04-23T12:42:09;7.20;;;3.22;;
54555;SDS011;57291;37.520;15.106;2023-04-23T12:44:37;11.00;;;4.32;;
54555;SDS011;57291;37.520;15.106;2023-04-23T12:47:05;9.23;;;5.05;;
54555;SDS011;57291;37.520;15.106;2023-04-23T12:49:34;7.88;;;3.38;;
54555;SDS011;57291;37.520;15.106;2023-04-23T12:52:04;9.25;;;3.13;;
54555;SDS011;57291;37.520;15.106;2023-04-23T12:54:35;8.75;;;3.83;;
54555;SDS011;57291;37.520;15.106;2023-04-23T12:57:07;7.60;;;2.83;;
54555;SDS011;57291;37.520;15.106;2023-04-23T12:59:37;9.40;;;4.13;;
54555;SDS011;57291;37.520;15.106;2023-04-23T13:02:05;6.70;;;3.92;;
54555;SDS011;57291;37.520;15.106;2023-04-23T13:04:33;8.20;;;4.75;;
54555;SDS011;57291;37.520;15.106;2023-04-23T13:07:02;6.32;;;3.25;;
54555;SDS011;57291;37.520;15.106;2023-04-23T13:09:29;6.57;;;2.78;;
54555;SDS011;57291;37.520;15.106;2023-04-23T13:11:56;4.07;;;2.70;;
54555;SDS011;57291;37.520;15.106;2023-04-23T13:14:26;7.75;;;2.80;;
54555;SDS011;57291;37.520;15.106;2023-04-23T13:16:53;4.95;;;2.90;;
54555;SDS011;57291;37.520;15.106;2023-04-23T13:19:21;5.68;;;3.25;;
54555;SDS011;57291;37.520;15.106;2023-04-23T13:21:48;4.90;;;2.50;;
54555;SDS011;57291;37.520;15.106;2023-04-23T13:24:15;8.10;;;3.50;;
54555;SDS011;57291;37.520;15.106;2023-04-23T13:26:42;6.65;;;2.90;;
54555;SDS011;57291;37.520;15.106;2023-04-23T13:29:10;4.93;;;2.83;;
54555;SDS011;57291;37.520;15.106;2023-04-23T13:31:37;7.18;;;3.22;;
54555;SDS011;57291;37.520;15.106;2023-04-23T13:34:04;6.72;;;3.22;;
54555;SDS011;57291;37.520;15.106;2023-04-23T13:40:02;7.90;;;2.97;;
54555;SDS011;57291;37.520;15.106;2023-04-23T13:42:29;6.32;;;2.75;;
54555;SDS011;57291;37.520;15.106;2023-04-23T13:44:57;5.57;;;3.10;;
54555;SDS011;57291;37.520;15.106;2023-04-23T13:47:24;9.90;;;3.30;;
54555;SDS011;57291;37.520;15.106;2023-04-23T13:49:53;7.38;;;3.35;;
54555;SDS011;57291;37.520;15.106;2023-04-23T13:52:20;7.68;;;2.88;;
54555;SDS011;57291;37.520;15.106;2023-04-23T13:54:47;6.35;;;2.65;;
54555;SDS011;57291;37.520;15.106;2023-04-23T13:57:16;4.22;;;2.70;;
54555;SDS011;57291;37.520;15.106;2023-04-23T13:59:43;8.77;;;3.05;;
54555;SDS011;57291;37.520;15.106;2023-04-23T14:02:10;7.10;;;3.13;;
54555;SDS011;57291;37.520;15.106;2023-04-23T14:04:37;8.50;;;3.25;;
54555;SDS011;57291;37.520;15.106;2023-04-23T14:07:05;8.23;;;2.85;;
54555;SDS011;57291;37.520;15.106;2023-04-23T14:09:45;6.53;;;3.10;;
54555;SDS011;57291;37.520;15.106;2023-04-23T14:12:13;7.03;;;2.72;;
54555;SDS011;57291;37.520;15.106;2023-04-23T14:14:40;5.28;;;2.83;;
54555;SDS011;57291;37.520;15.106;2023-04-23T14:17:07;4.35;;;2.83;;
54555;SDS011;57291;37.520;15.106;2023-04-23T14:20:53;11.32;;;3.17;;
54555;SDS011;57291;37.520;15.106;2023-04-23T14:25:52;4.65;;;2.72;;
54555;SDS011;57291;37.520;15.106;2023-04-23T14:28:43;6.28;;;3.28;;
54555;SDS011;57291;37.520;15.106;2023-04-23T14:31:12;8.73;;;3.30;;
54555;SDS011;57291;37.520;15.106;2023-04-23T14:33:39;6.10;;;3.00;;
54555;SDS011;57291;37.520;15.106;2023-04-23T14:36:06;6.47;;;3.00;;
54555;SDS011;57291;37.520;15.106;2023-04-23T14:38:33;5.07;;;2.63;;
54555;SDS011;57291;37.520;15.106;2023-04-23T14:41:01;6.75;;;3.13;;
54555;SDS011;57291;37.520;15.106;2023-04-23T14:43:28;4.63;;;2.80;;
54555;SDS011;57291;37.520;15.106;2023-04-23T14:45:58;4.80;;;3.00;;
54555;SDS011;57291;37.520;15.106;2023-04-23T14:48:25;7.35;;;3.17;;
54555;SDS011;57291;37.520;15.106;2023-04-23T14:50:52;6.25;;;3.05;;
54555;SDS011;57291;37.520;15.106;2023-04-23T14:53:19;7.13;;;2.95;;
54555;SDS011;57291;37.520;15.106;2023-04-23T14:55:47;7.22;;;3.33;;